Sea Start — FAD9561 — position and weather

sailwx.info

Track history (hours):
 
Tides and Currents Weather Stations Pressure Air Temp Water Temp Dewpoint Dewpoint Depression Visibility Wind Speed Wind Dir Waves Ship Positions

Sea Start

Last reported at 2017-Dec-17 19:28 UTC. Time now 2018-Feb-19 12:08 UTC.
Position N 14°27' W 060°57'.
Warning: this ship's position is months out of date.

Length 10 m.

Type: Pleasure craft. MMSI: 347017380.

Date/timePositionNaut miles runAvg speedWind from/ knotsBaromVisibWave heightAir tempDewpointWater temp
2017-Dec-17 19:28N 14°27' W 060°57'5 2.7
2017-Dec-17 17:43N 14°28' W 060°52'0 0.7
2017-Dec-17 17:28N 14°28' W 060°52'0 0.0
2017-Dec-17 17:00N 14°28' W 060°52'0 0.2
2017-Dec-17 16:16N 14°28' W 060°52'0 0.0
2017-Dec-17 15:52N 14°28' W 060°52'0 0.4
2017-Dec-17 15:31N 14°28' W 060°52'4 2.3
2017-Dec-17 13:43N 14°27' W 060°56'410.7
2017-Dec-17 13:20N 14°28' W 060°52'0 0.0
2017-Dec-17 12:59N 14°28' W 060°52'  
2017-Dec-09 21:33N 14°26' W 060°57'117.9
2017-Dec-09 21:30N 14°26' W 060°56'3 5.1
2017-Dec-09 20:58N 14°25' W 060°54'2 5.2
2017-Dec-09 20:30N 14°28' W 060°53'2 0.6
2017-Dec-09 16:38N 14°25' W 060°54'211.6
2017-Dec-09 16:30N 14°27' W 060°53'2 3.6
2017-Dec-09 16:00N 14°28' W 060°52'  
Track history (hours):
 
Tides and Currents Weather Stations Pressure Air Temp Water Temp Dewpoint Dewpoint Depression Visibility Wind Speed Wind Dir Waves Ship Positions

Sea Start

Last reported at 2017-Dec-17 19:28 UTC. Time now 2018-Feb-19 12:08 UTC.
Position N 14°27' W 060°57'.
Warning: this ship's position is months out of date.

Length 10 m.

Type: Pleasure craft. MMSI: 347017380.

Date/timePositionNaut miles runAvg speedWind from/ knotsBaromVisibWave heightAir tempDewpointWater temp
2017-Dec-17 19:28N 14°27' W 060°57'5 2.7
2017-Dec-17 17:43N 14°28' W 060°52'0 0.7
2017-Dec-17 17:28N 14°28' W 060°52'0 0.0
2017-Dec-17 17:00N 14°28' W 060°52'0 0.2
2017-Dec-17 16:16N 14°28' W 060°52'0 0.0
2017-Dec-17 15:52N 14°28' W 060°52'0 0.4
2017-Dec-17 15:31N 14°28' W 060°52'4 2.3
2017-Dec-17 13:43N 14°27' W 060°56'410.7
2017-Dec-17 13:20N 14°28' W 060°52'0 0.0
2017-Dec-17 12:59N 14°28' W 060°52'  
2017-Dec-09 21:33N 14°26' W 060°57'117.9
2017-Dec-09 21:30N 14°26' W 060°56'3 5.1
2017-Dec-09 20:58N 14°25' W 060°54'2 5.2
2017-Dec-09 20:30N 14°28' W 060°53'2 0.6
2017-Dec-09 16:38N 14°25' W 060°54'211.6
2017-Dec-09 16:30N 14°27' W 060°53'2 3.6
2017-Dec-09 16:00N 14°28' W 060°52'  

Dump ship's entire track history